Saddle Brook, New Jersey
Current Conditions -  °F | °C
As of 2:51 PM on Friday 28 Nov 2014 (Local Time) from KTEB Reporting Station
Scattered Clouds Scattered Clouds  
Wind Chill: 23°   Ceiling: Unl
Heat Index: 33°   Visibility: 10mi
Dew Point: 15°   Wind: 14mph
Humidity: 48%   Direction: 300°WNW
Pressure: 30.18"   Gusts: 23mph
Location:  40.9°N, 74.08°W
Report Text: KTEB 281951Z 30012G20KT 10SM SCT047 01/M09 A3018 RMK AO2 SLP219 T00061094 $
Loading
Personal Weather Stations






























Interactive Weather Map New forecast layout! Learn more

10-Day Weather Forecast

Advertisements
Track Severe Weather on mobile